Detalii statie CORIPLANT MIHALT [0000197B]

Toti senzorii

Date Temperatura solului [C]Precipitatii [mm]Voltaj baterie [mV]Leaf Wetness [Min]HC Air temperature [C]HC Relative humidity [%]Punctul de roua [C]
medieminmaxsumaultimatimpmedieminmaxmediemediemin
2020-01-21 22:00:00 0 6894 -1.68 -2.2 -1.08 100 -1.5 -2.1
2020-01-21 23:00:00 0 6874 -1.81 -1.99 -1.66 100 -1.6 -1.8
2020-01-22 00:00:00 0 6864 -2.14 -2.54 -1.81 100 -1.9 -2.4
2020-01-22 01:00:00 0 6854 -3.35 -3.96 -2.6 100 -3.2 -3.8
2020-01-22 02:00:00 0 6854 -4.1 -4.42 -3.99 100 -3.9 -4.3
2020-01-22 03:00:00 0 6834 -5.18 -5.52 -4.66 100 -5 -5.4
2020-01-22 04:00:00 0 6826 -5.19 -5.48 -4.9 100 -5 -5.3
2020-01-22 05:00:00 0 6826 -5.07 -5.58 -4.85 100 -4.9 -5.4
2020-01-22 06:00:00 0 6826 -5.73 -5.91 -5.6 100 -5.5 -5.8
2020-01-22 07:00:00 0 6816 -5.88 -6.48 -5.61 100 -5.7 -6.3
2020-01-22 08:00:00 0.6 6786 -5.89 -6.09 -5.77 100 -5.7 -5.9
2020-01-22 09:00:00 0 6826 -5.64 -5.96 -5.2 100 -5.5 -5.8
2020-01-22 10:00:00 0 7070 -4.53 -5.13 -3.8 100 -4.4 -5
2020-01-22 11:00:00 0 7196 -3.04 -3.67 -2.26 100 -2.9 -3.5
2020-01-22 12:00:00 0 7148 -1.42 -2.23 -0.71 100 -1.2 -2.1
2020-01-22 13:00:00 0 7206 0.36 -0.2 1.03 100 0.3 -0.1
2020-01-22 14:00:00 0 7206 0.3 -0.23 1.09 100 0.2 -0.1
2020-01-22 15:00:00 0 7206 0.2 -0.19 0.4 100 0.1 0
2020-01-22 16:00:00 0 7206 0.05 -0.48 0.29 100 0 -0.3
2020-01-22 17:00:00 0 7010 -0.06 -0.37 0.31 100 0 -0.2
2020-01-22 18:00:00 0 6952 -0.76 -1.21 -0.38 100 -0.6 -1.1
2020-01-22 19:00:00 0 6904 -1.6 -2.19 -1.17 100 -1.4 -2
2020-01-22 20:00:00 0 6864 -2.61 -3.04 -2.02 100 -2.4 -2.9
2020-01-22 21:00:00 0 6864 -2.55 -3 -2.24 100 -2.4 -2.9
2020-01-22 22:00:00 0 6854 -2.19 -2.3 -2.06 100 -2 -2.2
2020-01-22 23:00:00 0 6844 -2.06 -2.26 -1.95 100 -1.9 -2.1
2020-01-23 00:00:00 0 6834 -2.09 -2.21 -1.89 100 -1.9 -2.1
2020-01-23 01:00:00 0 6826 -2.39 -2.79 -2.18 100 -2.2 -2.6
2020-01-23 02:00:00 0 6826 -2.55 -2.8 -2.25 100 -2.4 -2.7
2020-01-23 03:00:00 0 6816 -2.25 -2.49 -2.16 100 -2.1 -2.3
2020-01-23 04:00:00 0 6816 -2.96 -3.98 -2.07 100 -2.8 -3.8
2020-01-23 05:00:00 0 6806 -4.26 -4.93 -3.68 100 -4.1 -4.8
2020-01-23 06:00:00 0 6796 -3.54 -4.36 -3.13 100 -3.4 -4.2
2020-01-23 07:00:00 0 6796 -2.76 -3.15 -2.35 100 -2.6 -3
2020-01-23 08:00:00 0 6776 -2.24 -2.36 -2.16 100 -2.1 -2.2
2020-01-23 09:00:00 0 6806 -2.04 -2.4 -1.76 100 -1.9 -2.3
2020-01-23 10:00:00 0 7000 -1.09 -1.58 -0.39 100 -0.9 -1.4
2020-01-23 11:00:00 0 7196 1.29 0.09 1.95 100 1.2 0
2020-01-23 12:00:00 0 7206 2.02 1.23 3.27 100 1.9 1.2
2020-01-23 13:00:00 0 7206 2.78 2.38 3.36 100 2.7 2.3
2020-01-23 14:00:00 0 7166 2.84 2.35 3.27 100 2.7 2.3
2020-01-23 15:00:00 0 7216 3.29 2.61 4.27 100 3.2 2.6
2020-01-23 16:00:00 0 7206 3.99 3.6 4.42 100 3.9 3.6
2020-01-23 17:00:00 0 7206 2.43 0.62 3.84 100 2.4 0.6
2020-01-23 18:00:00 0 6962 -0.38 -0.66 0.26 100 -0.2 -0.5
2020-01-23 19:00:00 0 6932 -1.55 -2.71 -0.62 100 -1.4 -2.6